Terminal Aerodrome Forecast
Issued by NWS

Home | Current Version | Previous Version | Text Only | Print | Product List | Glossary On
Versions: 1 2 3 4 5 6 7 8 9 10 11 12 13 14 15 16 17 18 19 20 21 22 23 24 25 26 27 28 29 30 31 32
000
FTUS42 KCAE 310246 AAA
TAFCUB
TAF AMD
KCUB 310246Z 3103/3124 VRB03KT P6SM -RA SCT008 OVC030
      TEMPO 3103/3105 2SM RA BR BKN008
     FM310500 VRB03KT P6SM VCSH OVC007
     FM311000 VRB03KT P6SM OVC005
      TEMPO 3110/3114 4SM BR
     FM311600 09006KT P6SM BKN015 OVC040=

USA.gov is the U.S. government's official web portal to all federal, state and local government web resources and services.